Time;durP1;ratioP1;P1;durP2;ratioP2;P2;SDS_P1;SDS_P2;PMS_P1;PMS_P2;Temp;Humidity;BMP_temperature;BMP_pressure;BME280_temperature;BME280_humidity;BME280_pressure;Samples;Min_cycle;Max_cycle;Signal;HPM_P1;HPM_P2
2023/08/17 00:01:35;;;;;;;18.88;8.68;;;18.30;99.90;;;;;;5069546;28;20052;-64
2023/08/17 00:04:02;;;;;;;17.15;8.77;;;18.30;99.90;;;;;;5069579;28;20054;-63
2023/08/17 00:06:28;;;;;;;18.02;8.10;;;18.30;99.90;;;;;;5069486;28;20044;-63
2023/08/17 00:08:55;;;;;;;16.13;8.23;;;18.30;99.90;;;;;;5069136;28;20041;-62
2023/08/17 00:11:22;;;;;;;14.35;9.05;;;18.30;99.90;;;;;;5069118;28;20123;-63
2023/08/17 00:13:49;;;;;;;13.93;8.88;;;18.20;99.90;;;;;;5069647;28;20586;-62
2023/08/17 00:16:16;;;;;;;15.15;9.68;;;18.30;99.90;;;;;;5069245;28;20048;-63
2023/08/17 00:18:43;;;;;;;15.57;9.50;;;18.30;99.90;;;;;;5068639;28;20046;-62
2023/08/17 00:21:10;;;;;;;15.70;8.68;;;18.40;99.90;;;;;;5069315;28;20083;-62
2023/08/17 00:23:37;;;;;;;13.88;9.35;;;18.40;99.90;;;;;;5069657;28;20063;-62
2023/08/17 00:26:03;;;;;;;16.05;9.07;;;18.40;99.90;;;;;;5069194;28;20052;-61
2023/08/17 00:28:30;;;;;;;13.60;8.75;;;18.50;99.90;;;;;;5064936;28;20049;-62
2023/08/17 00:30:57;;;;;;;13.93;8.93;;;18.50;99.90;;;;;;5066572;28;20272;-62
2023/08/17 00:33:24;;;;;;;14.52;9.05;;;18.50;99.90;;;;;;5067419;28;20695;-62
2023/08/17 00:35:50;;;;;;;12.20;8.40;;;18.50;99.90;;;;;;5068816;28;20385;-62
2023/08/17 00:38:17;;;;;;;13.10;7.82;;;18.50;99.90;;;;;;5068254;28;20072;-62
2023/08/17 00:40:44;;;;;;;13.85;7.50;;;18.50;99.90;;;;;;5066299;28;20075;-62
2023/08/17 00:43:11;;;;;;;15.70;8.50;;;18.40;99.90;;;;;;5068774;28;20430;-62
2023/08/17 00:45:37;;;;;;;20.23;9.07;;;18.40;99.90;;;;;;5068607;28;20491;-63
2023/08/17 00:48:07;;;;;;;20.38;9.52;;;18.40;99.90;;;;;;5068070;28;20052;-63
2023/08/17 00:50:34;;;;;;;20.15;8.23;;;18.40;99.90;;;;;;5066413;28;20071;-62
2023/08/17 00:53:01;;;;;;;19.27;9.37;;;18.30;99.90;;;;;;4698536;28;10000365;-62
2023/08/17 00:55:28;;;;;;;17.08;8.73;;;18.30;99.90;;;;;;5066211;28;20534;-62
2023/08/17 00:57:56;;;;;;;18.05;8.85;;;18.30;99.90;;;;;;5067882;28;20045;-62
2023/08/17 01:00:22;;;;;;;17.77;8.60;;;18.20;99.90;;;;;;5068228;28;20052;-62
2023/08/17 01:02:49;;;;;;;14.90;8.52;;;18.20;99.90;;;;;;5050680;28;20047;-62
2023/08/17 01:05:16;;;;;;;16.67;9.20;;;18.20;99.90;;;;;;5067940;28;20098;-62
2023/08/17 01:07:43;;;;;;;14.13;9.00;;;18.10;99.90;;;;;;5049775;28;20056;-63
2023/08/17 01:10:10;;;;;;;18.05;9.05;;;18.10;99.90;;;;;;5067474;28;20056;-62
2023/08/17 01:12:56;;;;;;;11.98;7.90;;;18.10;99.90;;;;;;5051205;28;20056;-62
2023/08/17 01:15:35;;;;;;;14.98;8.57;;;18.00;99.90;;;;;;5050638;28;20051;-62
2023/08/17 01:18:24;;;;;;;14.52;8.77;;;18.00;99.90;;;;;;5048702;28;20172;-63
2023/08/17 01:20:51;;;;;;;16.63;8.30;;;18.00;99.90;;;;;;5065336;28;20045;-62
2023/08/17 01:23:17;;;;;;;15.88;8.73;;;18.00;99.90;;;;;;5050194;28;20666;-62
2023/08/17 01:25:44;;;;;;;12.52;8.25;;;17.90;99.90;;;;;;5049495;28;20036;-62
2023/08/17 01:28:11;;;;;;;14.10;8.73;;;17.90;99.90;;;;;;5067226;28;20041;-62
2023/08/17 01:30:55;;;;;;;18.58;8.57;;;17.90;99.90;;;;;;5067447;28;20106;-63
2023/08/17 01:33:29;;;;;;;;;;;17.90;99.90;;;;;;5065980;28;20206;-63
2023/08/17 01:36:12;;;;;;;18.95;8.75;;;17.90;99.90;;;;;;5066862;28;19990;-62
2023/08/17 01:38:40;;;;;;;12.35;8.57;;;17.90;99.90;;;;;;5062852;28;20106;-62
2023/08/17 01:41:12;;;;;;;13.85;7.15;;;17.90;99.90;;;;;;5046988;28;20137;-62
2023/08/17 01:43:42;;;;;;;14.90;8.65;;;17.90;99.90;;;;;;5050207;28;20052;-63
2023/08/17 01:46:08;;;;;;;18.48;8.88;;;17.90;99.90;;;;;;5048866;28;20106;-62
2023/08/17 01:48:35;;;;;;;15.45;9.23;;;17.90;99.90;;;;;;5065154;28;20106;-62
2023/08/17 01:51:02;;;;;;;18.88;8.75;;;18.00;99.90;;;;;;5065977;28;20102;-65
2023/08/17 01:53:29;;;;;;;11.93;6.95;;;17.90;99.90;;;;;;5067431;28;20049;-63
2023/08/17 01:55:55;;;;;;;17.15;8.00;;;17.90;99.90;;;;;;5067091;28;20048;-63
2023/08/17 01:58:22;;;;;;;12.50;8.15;;;17.90;99.90;;;;;;5050209;28;20183;-63
2023/08/17 02:00:49;;;;;;;18.58;7.78;;;17.90;99.90;;;;;;5067306;28;20131;-62
2023/08/17 02:03:16;;;;;;;16.27;7.97;;;17.90;99.90;;;;;;5050463;28;20045;-62
2023/08/17 02:05:46;;;;;;;15.60;8.23;;;17.90;99.90;;;;;;5066645;28;20861;-63
2023/08/17 02:08:13;;;;;;;17.05;8.15;;;18.00;99.90;;;;;;5067077;28;20105;-63
2023/08/17 02:10:39;;;;;;;14.60;8.10;;;17.90;99.90;;;;;;5067193;28;20049;-63
2023/08/17 02:13:06;;;;;;;13.00;7.15;;;17.90;99.90;;;;;;5067838;28;20475;-62
2023/08/17 02:15:43;;;;;;;10.85;7.10;;;17.90;99.90;;;;;;5067121;28;20053;-62
2023/08/17 02:18:10;;;;;;;17.65;7.90;;;17.90;99.90;;;;;;5067152;28;20044;-62
2023/08/17 02:20:37;;;;;;;19.33;6.65;;;17.90;99.90;;;;;;5049468;28;20090;-63
2023/08/17 02:23:04;;;;;;;18.63;7.15;;;17.90;99.90;;;;;;5067452;28;20094;-63
2023/08/17 02:25:35;;;;;;;20.00;7.43;;;17.90;99.90;;;;;;5067046;28;20044;-62
2023/08/17 02:28:03;;;;;;;13.95;5.90;;;17.90;99.90;;;;;;5066204;28;20674;-63
2023/08/17 02:30:30;;;;;;;15.23;6.63;;;17.90;99.90;;;;;;5067050;28;20049;-62
2023/08/17 02:32:57;;;;;;;11.65;6.13;;;17.90;99.90;;;;;;5067184;28;20053;-62
2023/08/17 02:35:24;;;;;;;14.70;7.43;;;18.00;99.90;;;;;;5066469;28;20252;-62
2023/08/17 02:37:51;;;;;;;14.68;6.47;;;18.00;99.90;;;;;;5065728;28;20084;-62
2023/08/17 02:40:18;;;;;;;11.00;6.00;;;17.90;99.90;;;;;;5070543;28;20060;-62
2023/08/17 02:42:44;;;;;;;12.45;5.78;;;18.00;99.90;;;;;;5052880;28;20098;-61
2023/08/17 02:45:11;;;;;;;18.02;7.53;;;18.00;99.90;;;;;;5053091;28;20048;-62
2023/08/17 02:47:38;;;;;;;14.60;7.35;;;17.90;99.90;;;;;;5069998;28;20045;-62
2023/08/17 02:50:06;;;;;;;16.13;6.35;;;17.90;99.90;;;;;;5070677;28;20135;-62
2023/08/17 02:52:32;;;;;;;11.00;6.18;;;17.90;99.90;;;;;;5070454;28;20040;-62
2023/08/17 02:54:59;;;;;;;14.98;6.53;;;17.90;99.90;;;;;;5036382;28;20044;-62
2023/08/17 02:57:26;;;;;;;17.10;5.60;;;17.90;99.90;;;;;;5070661;28;20056;-63
2023/08/17 02:59:53;;;;;;;9.65;5.13;;;17.90;99.90;;;;;;5070582;28;20048;-62
2023/08/17 03:02:19;;;;;;;17.95;6.50;;;17.90;99.90;;;;;;5070405;28;20045;-61
2023/08/17 03:04:46;;;;;;;16.42;5.65;;;18.00;99.90;;;;;;5070552;28;20048;-62
2023/08/17 03:07:13;;;;;;;19.25;6.00;;;18.00;99.90;;;;;;5070091;28;20057;-62
2023/08/17 03:09:40;;;;;;;14.38;6.30;;;18.00;99.90;;;;;;5069687;28;20044;-62
2023/08/17 03:12:07;;;;;;;22.52;5.53;;;18.00;99.90;;;;;;5070702;28;20483;-62
2023/08/17 03:14:34;;;;;;;16.58;4.97;;;18.00;99.90;;;;;;5070498;28;20040;-62
2023/08/17 03:17:00;;;;;;;15.90;5.55;;;18.00;99.90;;;;;;5070111;28;20067;-63
2023/08/17 03:19:27;;;;;;;13.18;4.40;;;18.00;99.90;;;;;;5070473;28;20561;-63
2023/08/17 03:21:54;;;;;;;21.25;6.25;;;18.10;99.90;;;;;;5067804;28;20538;-62
2023/08/17 03:24:21;;;;;;;15.60;5.30;;;18.10;99.90;;;;;;5070364;28;20675;-63
2023/08/17 03:26:48;;;;;;;10.45;4.88;;;18.10;99.90;;;;;;5070734;28;20098;-63
2023/08/17 03:29:14;;;;;;;14.88;5.78;;;18.10;99.90;;;;;;5069903;28;20048;-62
2023/08/17 03:31:41;;;;;;;15.88;5.07;;;18.10;99.90;;;;;;5068726;28;20052;-62
2023/08/17 03:34:08;;;;;;;16.73;4.95;;;18.20;99.90;;;;;;5070015;28;20047;-63
2023/08/17 03:36:35;;;;;;;17.38;5.13;;;18.10;99.90;;;;;;5070590;28;20080;-63
2023/08/17 03:39:02;;;;;;;13.85;5.28;;;18.10;99.90;;;;;;5069848;28;20098;-63
2023/08/17 03:41:28;;;;;;;29.60;5.30;;;18.10;99.90;;;;;;5070158;28;20110;-63
2023/08/17 03:43:55;;;;;;;18.00;5.35;;;18.10;99.90;;;;;;5069935;28;20110;-62
2023/08/17 03:46:22;;;;;;;11.23;4.38;;;18.10;99.90;;;;;;5069734;28;20455;-62
2023/08/17 03:48:49;;;;;;;13.98;5.20;;;18.10;99.90;;;;;;5069074;28;20051;-63
2023/08/17 03:51:15;;;;;;;16.70;4.82;;;18.10;99.90;;;;;;5069706;28;20466;-63
2023/08/17 03:53:42;;;;;;;13.13;4.80;;;18.20;99.90;;;;;;5068763;28;20110;-62
2023/08/17 03:56:09;;;;;;;9.20;4.45;;;18.10;99.90;;;;;;5069020;28;20103;-62
2023/08/17 03:58:36;;;;;;;15.68;4.75;;;18.20;99.90;;;;;;5068563;28;20041;-63
2023/08/17 04:01:03;;;;;;;12.82;4.40;;;18.20;99.90;;;;;;5068704;28;20162;-62
2023/08/17 04:03:30;;;;;;;21.85;5.55;;;18.10;99.90;;;;;;5068974;28;20056;-61
2023/08/17 04:05:56;;;;;;;18.17;5.75;;;18.10;99.90;;;;;;5055061;28;20436;-62
2023/08/17 04:08:23;;;;;;;16.30;4.30;;;18.10;99.90;;;;;;5053734;28;20041;-64
2023/08/17 04:10:50;;;;;;;16.10;4.18;;;18.10;99.90;;;;;;5068800;28;20132;-61
2023/08/17 04:13:17;;;;;;;13.57;3.95;;;18.10;99.90;;;;;;5069028;28;20083;-62
2023/08/17 04:15:43;;;;;;;8.15;3.67;;;18.10;99.90;;;;;;5069158;28;20056;-62
2023/08/17 04:18:10;;;;;;;20.05;4.47;;;18.10;99.90;;;;;;5069347;28;20055;-64
2023/08/17 04:20:37;;;;;;;15.23;4.32;;;18.10;99.90;;;;;;5068760;28;20044;-62
2023/08/17 04:23:04;;;;;;;10.48;4.80;;;18.00;99.90;;;;;;5069347;28;20048;-62
2023/08/17 04:25:30;;;;;;;9.02;3.70;;;18.00;99.90;;;;;;5068617;28;20090;-63
2023/08/17 04:28:00;;;;;;;19.17;4.25;;;18.00;99.90;;;;;;5069139;28;20079;-64
2023/08/17 04:30:26;;;;;;;11.10;4.70;;;18.00;99.90;;;;;;5051040;28;20118;-64
2023/08/17 04:32:53;;;;;;;10.98;4.07;;;18.00;99.90;;;;;;5069355;28;20055;-62
2023/08/17 04:35:20;;;;;;;17.48;4.80;;;18.10;99.90;;;;;;5068141;28;20048;-62
2023/08/17 04:37:47;;;;;;;18.77;4.57;;;18.10;99.90;;;;;;5067417;28;20041;-62
2023/08/17 04:40:14;;;;;;;15.77;4.65;;;18.10;99.90;;;;;;5066014;28;20045;-63
2023/08/17 04:42:41;;;;;;;17.48;3.55;;;18.10;99.90;;;;;;5068828;28;20490;-62
2023/08/17 04:45:08;;;;;;;15.18;4.00;;;18.10;99.90;;;;;;5069148;28;20549;-61
2023/08/17 04:47:35;;;;;;;15.38;4.40;;;18.10;99.90;;;;;;5068113;28;20052;-62
2023/08/17 04:50:02;;;;;;;13.10;3.95;;;18.10;99.90;;;;;;5068542;28;20041;-63
2023/08/17 04:52:29;;;;;;;17.17;4.07;;;18.10;99.90;;;;;;5068431;28;20106;-63
2023/08/17 04:54:55;;;;;;;15.82;4.25;;;18.00;99.90;;;;;;5069257;28;20090;-63
2023/08/17 04:57:22;;;;;;;19.77;4.97;;;18.00;99.90;;;;;;5068002;28;20060;-63
2023/08/17 04:59:49;;;;;;;18.63;4.63;;;18.00;99.90;;;;;;5068295;28;20472;-62
2023/08/17 05:02:16;;;;;;;12.88;3.67;;;18.00;99.90;;;;;;5067339;28;20083;-61
2023/08/17 05:04:43;;;;;;;14.57;4.10;;;18.00;99.90;;;;;;5068684;28;20060;-63
2023/08/17 05:07:10;;;;;;;19.70;4.60;;;18.00;99.90;;;;;;5068315;28;20048;-63
2023/08/17 05:09:36;;;;;;;15.50;4.25;;;18.10;99.90;;;;;;5068267;28;20044;-63
2023/08/17 05:12:03;;;;;;;9.73;3.38;;;18.10;99.90;;;;;;5068582;28;20107;-63
2023/08/17 05:14:30;;;;;;;20.40;3.72;;;18.00;99.90;;;;;;5068571;28;20070;-63
2023/08/17 05:16:57;;;;;;;18.30;4.07;;;18.00;99.90;;;;;;5067878;28;20048;-63
2023/08/17 05:19:24;;;;;;;15.05;4.45;;;18.10;99.90;;;;;;5068106;28;20044;-62
2023/08/17 05:21:51;;;;;;;17.52;3.40;;;18.10;99.90;;;;;;5068074;28;20118;-62
2023/08/17 05:24:20;;;;;;;12.18;3.50;;;18.10;99.90;;;;;;5068443;28;20127;-63
2023/08/17 05:26:47;;;;;;;15.38;3.97;;;18.10;99.90;;;;;;5067882;28;20044;-60
2023/08/17 05:29:13;;;;;;;16.02;3.70;;;18.10;99.90;;;;;;5067713;28;20052;-63
2023/08/17 05:31:40;;;;;;;7.10;3.40;;;18.20;99.90;;;;;;5066522;28;20091;-62
2023/08/17 05:34:07;;;;;;;11.55;4.20;;;18.20;99.90;;;;;;5067243;28;20040;-62
2023/08/17 05:36:34;;;;;;;23.38;5.05;;;18.20;99.90;;;;;;5067112;28;20055;-62
2023/08/17 05:39:01;;;;;;;14.25;3.92;;;18.20;99.90;;;;;;5064026;28;20049;-62
2023/08/17 05:41:28;;;;;;;19.10;4.65;;;18.20;99.90;;;;;;5067899;28;20060;-64
2023/08/17 05:43:55;;;;;;;17.52;5.72;;;18.20;99.90;;;;;;5067316;28;20045;-63
2023/08/17 05:46:22;;;;;;;13.15;4.90;;;18.20;99.90;;;;;;5067203;28;20114;-63
2023/08/17 05:48:51;;;;;;;18.67;5.10;;;18.20;99.90;;;;;;5064196;28;20051;-63
2023/08/17 05:51:18;;;;;;;22.45;4.45;;;18.20;99.90;;;;;;5046678;28;20114;-64
2023/08/17 05:53:45;;;;;;;8.15;3.85;;;18.20;99.90;;;;;;5066698;28;20049;-64
2023/08/17 05:56:12;;;;;;;13.45;4.75;;;18.20;99.90;;;;;;5067747;28;20099;-64
2023/08/17 05:58:38;;;;;;;10.85;3.15;;;18.20;99.90;;;;;;5067587;28;20048;-64
2023/08/17 06:01:08;;;;;;;15.77;4.70;;;18.20;99.90;;;;;;5049646;28;20044;-61
2023/08/17 06:03:35;;;;;;;10.88;3.88;;;18.30;99.90;;;;;;5066927;28;20036;-63
2023/08/17 06:06:03;;;;;;;29.67;4.72;;;18.30;99.90;;;;;;5067969;28;20056;-63
2023/08/17 06:08:30;;;;;;;28.08;4.75;;;18.30;99.90;;;;;;5065919;28;20094;-63
2023/08/17 06:10:57;;;;;;;15.98;3.78;;;18.30;99.90;;;;;;5066177;28;20090;-62
2023/08/17 06:13:24;;;;;;;12.48;4.60;;;18.30;99.90;;;;;;5051738;28;20485;-63
2023/08/17 06:15:51;;;;;;;14.70;4.30;;;18.30;99.90;;;;;;5053152;28;20098;-64
2023/08/17 06:18:17;;;;;;;19.30;4.15;;;18.30;99.90;;;;;;5071429;28;20491;-64
2023/08/17 06:20:46;;;;;;;22.02;5.13;;;18.30;99.90;;;;;;5053504;28;20548;-63
2023/08/17 06:23:13;;;;;;;13.82;4.20;;;18.40;99.90;;;;;;5071481;28;20048;-60
2023/08/17 06:25:40;;;;;;;18.63;5.50;;;18.40;99.90;;;;;;5071081;28;20056;-60
2023/08/17 06:28:06;;;;;;;21.35;5.18;;;18.50;99.90;;;;;;5070921;28;20410;-60
2023/08/17 06:30:33;;;;;;;20.45;5.07;;;18.50;99.90;;;;;;5070994;28;20048;-60
2023/08/17 06:33:00;;;;;;;19.50;6.53;;;18.50;99.90;;;;;;5053725;28;20055;-60
2023/08/17 06:35:27;;;;;;;22.20;4.70;;;18.50;99.90;;;;;;5071262;28;20057;-59
2023/08/17 06:37:57;;;;;;;22.73;4.90;;;18.50;99.90;;;;;;5071904;28;20483;-61
2023/08/17 06:40:25;;;;;;;23.00;4.75;;;18.50;99.90;;;;;;5070835;28;20071;-60
2023/08/17 06:42:54;;;;;;;28.77;5.22;;;18.60;99.90;;;;;;5071370;28;20134;-60
2023/08/17 06:45:22;;;;;;;17.70;4.95;;;18.60;99.90;;;;;;5052900;28;20049;-61
2023/08/17 06:47:49;;;;;;;20.38;5.00;;;18.60;99.90;;;;;;5053291;28;20144;-60
2023/08/17 06:50:16;;;;;;;17.92;5.10;;;18.70;99.90;;;;;;5070426;28;20054;-61
2023/08/17 06:52:43;;;;;;;31.45;4.38;;;18.70;99.90;;;;;;5070938;28;20092;-60
2023/08/17 06:55:12;;;;;;;17.17;4.32;;;18.70;99.90;;;;;;5070698;28;20041;-60
2023/08/17 06:57:39;;;;;;;15.50;4.40;;;18.80;99.90;;;;;;5059759;28;20110;-60
2023/08/17 07:00:07;;;;;;;30.48;5.65;;;18.80;99.90;;;;;;5070309;28;20068;-60
2023/08/17 07:02:34;;;;;;;25.58;5.05;;;18.90;99.90;;;;;;5070351;28;20556;-60
2023/08/17 07:05:19;;;;;;;23.08;4.65;;;19.00;99.90;;;;;;5070278;28;20127;-59
2023/08/17 07:07:45;;;;;;;18.05;6.15;;;19.00;99.90;;;;;;5070304;28;20872;-59
2023/08/17 07:10:12;;;;;;;15.25;4.95;;;19.00;99.90;;;;;;5070182;28;20072;-62
2023/08/17 07:12:39;;;;;;;18.75;4.75;;;19.10;99.90;;;;;;5068031;28;20110;-62
2023/08/17 07:15:06;;;;;;;16.85;4.40;;;19.10;99.90;;;;;;5069936;28;20040;-60
2023/08/17 07:17:36;;;;;;;18.33;5.35;;;19.10;99.90;;;;;;5068775;28;20072;-60
2023/08/17 07:20:07;;;;;;;18.10;4.45;;;19.10;99.90;;;;;;5070412;28;20055;-61
2023/08/17 07:22:43;;;;;;;21.08;5.30;;;19.20;99.90;;;;;;5069519;28;20075;-59
2023/08/17 07:25:09;;;;;;;17.60;4.93;;;19.20;99.90;;;;;;5067599;28;20056;-59
2023/08/17 07:27:37;;;;;;;19.60;3.95;;;19.20;99.90;;;;;;5068375;28;20055;-58
2023/08/17 07:30:04;;;;;;;17.70;4.50;;;19.20;99.90;;;;;;5068354;28;20076;-56
2023/08/17 07:32:31;;;;;;;16.88;5.13;;;19.30;99.90;;;;;;5065362;28;20052;-58
2023/08/17 07:34:58;;;;;;;16.90;5.22;;;19.30;99.90;;;;;;5068663;28;20044;-63
2023/08/17 07:37:31;;;;;;;18.58;3.92;;;19.30;99.90;;;;;;5067814;28;20059;-60
2023/08/17 07:39:57;;;;;;;23.38;5.30;;;19.30;99.90;;;;;;5069597;28;20048;-59
2023/08/17 07:42:24;;;;;;;19.33;4.32;;;19.40;99.90;;;;;;5069437;28;20118;-58
2023/08/17 07:44:53;;;;;;;14.15;3.65;;;19.50;99.90;;;;;;5070210;28;20049;-59
2023/08/17 07:47:20;;;;;;;15.60;3.78;;;19.60;99.90;;;;;;5069139;28;20040;-59
2023/08/17 07:49:46;;;;;;;20.17;4.65;;;19.70;99.90;;;;;;5069733;28;20044;-58
2023/08/17 07:52:15;;;;;;;19.55;3.95;;;19.70;99.90;;;;;;5067965;28;20044;-57
2023/08/17 07:54:42;;;;;;;15.55;4.13;;;19.80;99.90;;;;;;5068430;28;20079;-59
2023/08/17 07:57:09;;;;;;;13.80;3.65;;;19.90;99.90;;;;;;5069224;28;20131;-60
2023/08/17 07:59:36;;;;;;;15.68;3.95;;;19.90;99.90;;;;;;5068893;28;20136;-58
2023/08/17 08:02:03;;;;;;;14.65;3.20;;;20.00;99.90;;;;;;5068767;28;20041;-59
2023/08/17 08:04:30;;;;;;;8.40;3.00;;;20.10;99.90;;;;;;5069214;28;20056;-57
2023/08/17 08:06:57;;;;;;;20.50;3.90;;;20.20;99.90;;;;;;5069054;28;20547;-59
2023/08/17 08:09:23;;;;;;;22.35;4.95;;;20.30;99.90;;;;;;5069251;28;20060;-58
2023/08/17 08:11:50;;;;;;;19.00;4.15;;;20.40;99.90;;;;;;5069455;28;20059;-59
2023/08/17 08:14:17;;;;;;;18.27;3.83;;;20.40;99.90;;;;;;5069272;28;20049;-58
2023/08/17 08:16:44;;;;;;;17.60;3.80;;;20.50;99.90;;;;;;5069183;28;20049;-59
2023/08/17 08:19:11;;;;;;;10.75;3.28;;;20.60;99.90;;;;;;5066263;28;20037;-60
2023/08/17 08:21:38;;;;;;;17.60;3.80;;;20.70;99.90;;;;;;5069323;28;20048;-60
2023/08/17 08:24:05;;;;;;;16.38;4.53;;;20.70;99.90;;;;;;5068845;28;20049;-59
2023/08/17 08:26:44;;;;;;;16.30;4.18;;;20.80;99.90;;;;;;5068926;28;20094;-59
2023/08/17 08:29:10;;;;;;;17.13;3.42;;;20.80;99.90;;;;;;5068491;28;20058;-60
2023/08/17 08:31:37;;;;;;;13.95;3.80;;;20.80;99.90;;;;;;5068898;28;20052;-58
2023/08/17 08:34:04;;;;;;;13.27;2.90;;;20.90;99.90;;;;;;5068366;28;20098;-58
2023/08/17 08:36:31;;;;;;;21.58;3.63;;;20.90;99.90;;;;;;5068015;28;20129;-60
2023/08/17 08:38:58;;;;;;;13.38;2.80;;;21.00;99.90;;;;;;5066770;28;20048;-58
2023/08/17 08:41:25;;;;;;;13.73;3.30;;;21.00;99.90;;;;;;5067345;28;20440;-58
2023/08/17 08:43:51;;;;;;;12.68;3.03;;;20.90;99.90;;;;;;5050504;28;20090;-58
2023/08/17 08:46:18;;;;;;;10.75;3.55;;;20.90;99.90;;;;;;5050427;28;20049;-62
2023/08/17 08:48:45;;;;;;;15.68;4.25;;;20.90;99.90;;;;;;5048672;28;20041;-60
2023/08/17 08:51:12;;;;;;;13.48;2.85;;;20.80;99.90;;;;;;5048738;28;20052;-58
2023/08/17 08:53:42;;;;;;;17.45;3.35;;;20.80;99.90;;;;;;5047679;28;20101;-59
2023/08/17 08:56:12;;;;;;;21.15;3.95;;;20.90;99.90;;;;;;5046868;28;20052;-58
2023/08/17 08:58:39;;;;;;;11.80;3.05;;;21.00;99.90;;;;;;5066805;28;20750;-58
2023/08/17 09:01:05;;;;;;;17.10;3.13;;;21.00;99.90;;;;;;5048965;28;20068;-58
2023/08/17 09:03:34;;;;;;;19.52;3.60;;;21.10;99.90;;;;;;5064330;28;20049;-60
2023/08/17 09:06:01;;;;;;;16.02;3.58;;;21.10;99.90;;;;;;5050178;28;20048;-58
2023/08/17 09:08:29;;;;;;;11.25;2.70;;;21.20;99.90;;;;;;5049498;28;20535;-56
2023/08/17 09:10:56;;;;;;;14.60;2.83;;;21.30;99.90;;;;;;5048038;28;20560;-57
2023/08/17 09:13:23;;;;;;;10.60;2.60;;;21.30;99.90;;;;;;5066395;28;20037;-58
2023/08/17 09:15:50;;;;;;;21.13;3.97;;;21.40;99.90;;;;;;5048086;28;20076;-59
2023/08/17 09:18:17;;;;;;;10.60;2.72;;;21.30;99.90;;;;;;5066305;28;20499;-57
2023/08/17 09:20:46;;;;;;;18.73;3.47;;;21.30;99.90;;;;;;5066242;28;20121;-58
2023/08/17 09:23:16;;;;;;;15.15;3.95;;;21.40;99.90;;;;;;5067048;28;20067;-58
2023/08/17 09:25:44;;;;;;;8.20;2.85;;;21.40;99.90;;;;;;5067322;28;20098;-58
2023/08/17 09:28:14;;;;;;;26.55;4.93;;;21.60;99.90;;;;;;5067403;28;20052;-58
2023/08/17 09:30:54;;;;;;;13.43;2.35;;;21.80;99.90;;;;;;5065785;28;20049;-58
2023/08/17 09:33:22;;;;;;;22.70;4.95;;;22.00;99.90;;;;;;5061346;28;20063;-58
2023/08/17 09:35:53;;;;;;;13.18;2.97;;;22.00;99.90;;;;;;5067396;28;20097;-58
2023/08/17 09:38:25;;;;;;;9.55;2.28;;;22.10;99.90;;;;;;5067338;28;20056;-58
2023/08/17 09:40:52;;;;;;;11.98;3.00;;;22.20;99.90;;;;;;5067348;28;20051;-58
2023/08/17 09:43:22;;;;;;;22.35;3.67;;;22.20;99.90;;;;;;5046600;28;20048;-58
2023/08/17 09:45:52;;;;;;;17.63;3.17;;;22.20;99.90;;;;;;5066537;28;20130;-59
2023/08/17 09:48:19;;;;;;;10.63;3.45;;;22.30;99.90;;;;;;5067121;28;20083;-59
2023/08/17 09:50:47;;;;;;;8.80;2.40;;;22.50;99.90;;;;;;5049704;28;20091;-59
2023/08/17 09:53:14;;;;;;;12.23;2.65;;;22.60;99.90;;;;;;5068300;28;20106;-59
2023/08/17 09:55:42;;;;;;;10.73;2.45;;;22.50;99.90;;;;;;5067567;28;20098;-59
2023/08/17 09:58:16;;;;;;;9.10;2.38;;;22.70;99.90;;;;;;5067402;28;20551;-59
2023/08/17 10:00:45;;;;;;;12.48;4.10;;;22.70;99.90;;;;;;5067711;28;20094;-59
2023/08/17 10:03:17;;;;;;;10.70;2.58;;;22.60;99.90;;;;;;5066712;28;20049;-60
2023/08/17 10:05:46;;;;;;;9.50;2.90;;;22.90;99.90;;;;;;5067652;28;20040;-59
2023/08/17 10:08:13;;;;;;;21.48;2.78;;;23.10;99.90;;;;;;5049059;28;20080;-59
2023/08/17 10:10:42;;;;;;;12.32;2.45;;;23.40;99.90;;;;;;5047219;28;20117;-59
2023/08/17 10:13:11;;;;;;;14.63;2.15;;;23.70;99.90;;;;;;5059599;28;20446;-59
2023/08/17 10:15:40;;;;;;;6.47;1.85;;;23.70;99.90;;;;;;5067358;28;20049;-59
2023/08/17 10:18:19;;;;;;;13.00;3.13;;;23.90;99.90;;;;;;5032972;28;20110;-59
2023/08/17 10:20:52;;;;;;;7.40;1.73;;;24.20;99.90;;;;;;5061197;28;20484;-59
2023/08/17 10:23:19;;;;;;;12.50;2.45;;;24.60;99.90;;;;;;5033496;28;20084;-59
2023/08/17 10:25:46;;;;;;;14.73;2.50;;;24.40;99.90;;;;;;5049374;28;20047;-59
2023/08/17 10:28:17;;;;;;;15.30;3.15;;;24.10;99.90;;;;;;5018084;28;20267;-59
2023/08/17 10:30:44;;;;;;;9.98;2.42;;;23.70;99.90;;;;;;5030684;28;20068;-59
2023/08/17 10:33:10;;;;;;;14.80;3.63;;;23.50;99.90;;;;;;5049172;28;20053;-59
2023/08/17 10:35:37;;;;;;;10.23;2.50;;;23.10;99.90;;;;;;5049815;28;20048;-58
2023/08/17 10:38:04;;;;;;;8.25;2.38;;;23.10;99.90;;;;;;5048612;28;20051;-58
2023/08/17 10:40:37;;;;;;;10.77;2.50;;;22.90;99.90;;;;;;5067269;28;20090;-59
2023/08/17 10:43:04;;;;;;;8.75;2.53;;;22.80;99.90;;;;;;5046403;28;20053;-59
2023/08/17 10:45:34;;;;;;;14.55;2.65;;;22.90;99.90;;;;;;5067033;28;20700;-58
2023/08/17 10:48:08;;;;;;;8.38;2.05;;;23.00;99.90;;;;;;5066821;28;20044;-59
2023/08/17 10:50:36;;;;;;;11.07;2.45;;;23.10;99.90;;;;;;5067213;28;20045;-57
2023/08/17 10:53:10;;;;;;;10.98;2.33;;;23.00;99.90;;;;;;5067032;28;20048;-58
2023/08/17 10:55:41;;;;;;;7.85;1.88;;;23.00;99.90;;;;;;5067247;28;20118;-60
2023/08/17 10:58:08;;;;;;;7.00;2.05;;;23.10;99.90;;;;;;5066630;28;20044;-58
2023/08/17 11:00:44;;;;;;;8.70;2.08;;;23.00;99.90;;;;;;5069843;28;20849;-58
2023/08/17 11:03:18;;;;;;;10.68;2.33;;;22.90;99.90;;;;;;5070665;28;20127;-57
2023/08/17 11:05:48;;;;;;;12.13;3.10;;;22.80;99.90;;;;;;5070638;28;20095;-58
2023/08/17 11:08:32;;;;;;;14.75;2.28;;;22.70;99.90;;;;;;5068550;28;20052;-58
2023/08/17 11:11:11;;;;;;;8.07;2.00;;;22.80;99.90;;;;;;5065800;28;20487;-59
2023/08/17 11:13:39;;;;;;;13.60;3.30;;;22.70;99.90;;;;;;5059749;28;20041;-59
2023/08/17 11:16:06;;;;;;;10.00;2.05;;;23.00;99.90;;;;;;5070770;28;20057;-59
2023/08/17 11:18:33;;;;;;;9.18;2.83;;;23.10;99.90;;;;;;5070622;28;20470;-58
2023/08/17 11:21:03;;;;;;;10.73;2.47;;;23.00;99.90;;;;;;5070659;28;20041;-58
2023/08/17 11:23:30;;;;;;;7.55;2.08;;;22.90;99.90;;;;;;5053010;28;20053;-58
2023/08/17 11:25:57;;;;;;;16.90;3.08;;;22.80;99.90;;;;;;5070435;28;20062;-58
2023/08/17 11:28:24;;;;;;;12.52;2.30;;;22.70;99.90;;;;;;5070491;28;20040;-58
2023/08/17 11:30:58;;;;;;;11.75;3.00;;;22.70;99.90;;;;;;5070079;28;20103;-57
2023/08/17 11:33:26;;;;;;;12.25;2.85;;;22.70;99.90;;;;;;5071003;28;20075;-59
2023/08/17 11:35:59;;;;;;;7.70;1.67;;;22.80;99.90;;;;;;5070414;28;20056;-58
2023/08/17 11:38:37;;;;;;;9.38;1.83;;;22.70;99.90;;;;;;5070329;28;20044;-56
2023/08/17 11:41:05;;;;;;;11.07;2.38;;;22.90;99.90;;;;;;5067014;28;20067;-57
2023/08/17 11:43:32;;;;;;;19.15;2.97;;;23.00;99.90;;;;;;5070427;28;20122;-60
2023/08/17 11:46:00;;;;;;;7.18;1.83;;;23.00;99.90;;;;;;5069617;28;20048;-57
2023/08/17 11:48:27;;;;;;;10.18;2.60;;;23.00;99.90;;;;;;5070165;28;20055;-59
2023/08/17 11:50:58;;;;;;;8.27;1.80;;;23.00;99.90;;;;;;5069636;28;20127;-60
2023/08/17 11:53:24;;;;;;;7.25;1.70;;;23.00;99.90;;;;;;4717503;28;9999944;-59
2023/08/17 11:55:51;;;;;;;10.35;2.50;;;23.00;99.90;;;;;;4714031;28;10000560;-59
2023/08/17 11:58:43;;;;;;;7.53;2.25;;;23.00;99.90;;;;;;5064045;28;20048;-59
2023/08/17 12:01:11;;;;;;;10.50;2.15;;;23.00;99.90;;;;;;5062386;28;20114;-58
2023/08/17 12:03:40;;;;;;;5.78;1.67;;;23.10;99.90;;;;;;5066802;28;20056;-59
2023/08/17 12:06:08;;;;;;;10.45;3.30;;;23.10;99.90;;;;;;5048725;28;20044;-58
2023/08/17 12:08:34;;;;;;;8.07;1.60;;;23.30;99.90;;;;;;5064713;28;20045;-59
2023/08/17 12:11:02;;;;;;;10.68;1.88;;;23.40;99.90;;;;;;5065618;28;20044;-58
2023/08/17 12:13:36;;;;;;;8.52;1.73;;;23.40;99.90;;;;;;5065984;28;20741;-59
2023/08/17 12:16:03;;;;;;;9.13;1.80;;;23.30;99.90;;;;;;5064761;28;20106;-59
2023/08/17 12:18:34;;;;;;;13.35;2.88;;;23.30;99.90;;;;;;5031900;28;20075;-57
2023/08/17 12:21:01;;;;;;;14.60;2.42;;;23.30;99.90;;;;;;5065474;28;20084;-58
2023/08/17 12:23:28;;;;;;;15.40;2.95;;;23.30;99.90;;;;;;5065100;28;20052;-58
2023/08/17 12:25:55;;;;;;;6.60;1.40;;;23.30;99.90;;;;;;5047857;28;20064;-58
2023/08/17 12:28:23;;;;;;;8.48;2.22;;;23.30;99.90;;;;;;5065994;28;20052;-59
2023/08/17 12:31:10;;;;;;;11.95;1.85;;;23.40;99.90;;;;;;5064991;28;20047;-58
2023/08/17 12:33:37;;;;;;;16.08;2.10;;;23.50;99.90;;;;;;5063921;28;20513;-59
2023/08/17 12:36:06;;;;;;;5.57;2.20;;;23.40;99.90;;;;;;5065525;28;20059;-58
2023/08/17 12:38:33;;;;;;;5.30;1.25;;;23.40;99.90;;;;;;5063299;28;20047;-58
2023/08/17 12:41:00;;;;;;;13.63;1.77;;;23.50;99.90;;;;;;5047456;28;20104;-58
2023/08/17 12:43:32;;;;;;;12.02;3.03;;;23.50;99.90;;;;;;5064642;28;20040;-58